Relevés horaires St-Hubert (Belgique)


Relevés horaires à St-Hubert - Lundi 27 Avr. 2026
Heure UTC1 Température [°C] Vent [km/h] Hum. [%] Pres.4 [hPa] Visi. [Km] Nébu. [octa] Préc.5 [mm] Cond.
2m. Res. Ros. Dir.2 Vit. Moy. Raf.3
23:00 9.8 8.9 0.8 ENE 7.4 9.3 11.1 53 1019.5(-0.6/3h) >70 0/8 -- --
22:00 9.7 8.8 0.9 ENE 7.4 7.4 11.1 54 1019.6(-0.6/3h) >70 0/8 -- --
21:00 10.6 9.8 0.4 NE 7.4 11.1 14.8 49 1019.7(-0.4/3h) >70 0/8 -- --
20:00 10.9 10.2 0.4 NE 7.4 7.4 11.1 48 1019.9(-0.2/3h) >70 0/8 -- --
19:00 12.7 12.3 -0.1 NNE 7.4 11.1 14.8 41 1019.6(-0.5/3h) >70 0/8 -- --
18:00 14.6 14.2 0.8 N 9.3 9.3 13.0 39 1019.2(-0.9/3h) >70 -- 0/12h
--
17:00 15.9 15.9 1.2 N 7.4 9.3 13.0 37 1019(-1.1/3h) >70 0/8 -- --
16:00 17.4 17.4 1.5 NNO 7.4 9.3 13.0 34 1019(-1.3/3h) >70 -- -- --
15:00 17.1 17.1 1.1 NNO 7.4 7.4 13.0 34 1019.5(-1.3/3h) >70 -- -- --
14:00 17.7 17.7 -- NO 5.6 5.6 11.1 -- 1019.8(-1.2/3h) >70 -- -- --
13:00 17.0 17.0 -0.8 N 3.7 5.6 9.3 30 1020.5(-1.2/3h) >70 -- -- --
12:00 16.9 16.9 -1.7 NNO 3.7 5.6 9.3 28 1021(-0.8/3h) >70 -- 0/6h
--
11:00 15.3 15.3 -8.6 NNE 3.7 3.7 7.4 18 1021.7(-0.5/3h) >70 0/8 -- --
10:00 14.4 14.4 0.8 N 1.9 3.7 7.4 39 1022.3(0.2/3h) >70 -- -- --
09:00 12.6 12.6 0.2 NNE 3.7 5.6 7.4 42 1022.8(0.1/3h) >70 -- -- --
08:00 11.3 11.3 0.9 NE 3.7 5.6 7.4 49 1023.1(0.3/3h) >70 -- -- --
07:00 10.0 10.0 -0.4 NE 3.7 5.6 7.4 48 1023.6(0.6/3h) >70 -- -- --
06:00 7.9 7.2 -1.8 NE 5.6 7.4 9.3 50 1024.1(0.4/3h) >70 -- 0/12h
--
05:00 6.2 5.2 -- NE 5.6 7.4 7.4 -- 1024(0.0/3h) >70 -- -- --
04:00 4.8 3.6 -1.2 ENE 5.6 5.6 7.4 65 1024.2(-0.4/3h) >70 -- -- --
03:00 6.8 5.9 -0.2 ENE 5.6 7.4 9.3 61 1023.9(-0.5/3h) >70 0/8 -- --
02:00 5.1 4 -1.9 NE 5.6 7.4 7.4 60 1024.3(-0.6/3h) >70 -- -- --
01:00 7.9 7.2 -1.0 ENE 5.6 7.4 9.3 53 1023.9(-0.4/3h) >70 0/8 -- --
00:00 7.7 6.4 -0.5 ENE 7.4 9.3 13.0 56 1024.2(0.1/3h) >70 -- 0/6h
0/24h
--

1 Coordinated Universal Time. Actuellement il est 14:00 locale et 12:00 UTC.

2 Le vent souffle depuis la direction indiquée vers la direction oposée.

3 Les rafales max. sont disponible 40 min après l'heure du relevé.

4 Pour les stations d'altitude (plus de 600m) le géopotentiel du niveau le plus proche de la pression obligatoire est indiqué.

5 Les stations disposant d'un diffuseur peuvent indiquer "trace". Cela signifie que des précipitations ont touchés le sol mais que la quantité est inférieure à 0.1 mm.

Récapitulatif de la journée
Température [°C] Vent [km/h] Ensoleillement4 [h] Precipitations totale5 [mm] Pression [Hpa]
Min1 Max.2 Moy.3 Max. Min Max.
2.2 18.5 7.3 14.8 0 h 0 min 0 1019.0 1024.3

1 Température minimale relevée entre 18:00 UTC la veille et 18:00 UTC le jour donné.

2 Température maximale relevée entre 06:00 UTC le jour donné et 06:00 UTC le lendemain.

3 Vent moyen de la journée basé sur les relevés horaires.

4 Ensoleillement en heures relevé entre 06:00 UTC la veille et 06:00 UTC le jour donné.

5 Précipitations totales tombées entre 06:00 UTC la jour donné et 06:00 UTC le lendemain.

Graphiques horaires